createdAt,value
2023-03-22T00:02:08.109Z,10.60
2023-03-22T00:04:34.756Z,10.60
2023-03-22T00:07:01.468Z,10.60
2023-03-22T00:09:28.093Z,10.60
2023-03-22T00:11:54.689Z,10.60
2023-03-22T00:14:21.616Z,10.50
2023-03-22T00:16:49.127Z,10.40
2023-03-22T00:19:17.273Z,10.30
2023-03-22T00:21:44.432Z,10.30
2023-03-22T00:24:11.075Z,10.30
2023-03-22T00:26:37.800Z,10.30
2023-03-22T00:29:04.886Z,10.30
2023-03-22T00:31:31.886Z,10.20
2023-03-22T00:33:58.578Z,10.20
2023-03-22T00:36:25.360Z,10.10
2023-03-22T00:38:52.109Z,10.00
2023-03-22T00:41:23.118Z,9.90
2023-03-22T00:43:51.484Z,9.90
2023-03-22T00:46:20.418Z,9.90
2023-03-22T00:48:48.187Z,9.90
2023-03-22T00:51:15.628Z,9.80
2023-03-22T00:53:43.646Z,9.90
2023-03-22T00:56:13.946Z,9.80
2023-03-22T00:58:41.649Z,9.70
2023-03-22T01:01:09.013Z,9.70
2023-03-22T01:03:35.878Z,9.70
2023-03-22T01:06:02.728Z,9.70
2023-03-22T01:08:33.150Z,9.70
2023-03-22T01:11:01.123Z,9.60
2023-03-22T01:13:29.045Z,9.60
2023-03-22T01:15:55.913Z,9.60
2023-03-22T01:18:22.840Z,9.50
2023-03-22T01:20:49.459Z,9.50
2023-03-22T01:23:16.060Z,9.50
2023-03-22T01:25:43.487Z,9.50
2023-03-22T01:28:10.182Z,9.50
2023-03-22T01:30:39.718Z,9.30
2023-03-22T01:33:07.647Z,9.30
2023-03-22T01:35:36.108Z,9.30
2023-03-22T01:38:03.128Z,9.20
2023-03-22T01:40:29.928Z,9.10
2023-03-22T01:42:56.704Z,9.00
2023-03-22T01:45:32.028Z,9.00
2023-03-22T01:48:09.790Z,9.00
2023-03-22T01:50:39.215Z,8.90
2023-03-22T01:53:10.860Z,8.80
2023-03-22T01:55:38.190Z,8.70
2023-03-22T01:58:05.086Z,8.70
2023-03-22T02:00:33.617Z,8.70
2023-03-22T02:03:00.286Z,8.70
2023-03-22T02:05:27.503Z,8.60
2023-03-22T02:07:54.174Z,8.60
2023-03-22T02:10:24.586Z,8.70
2023-03-22T02:13:18.951Z,8.60
2023-03-22T02:16:00.678Z,8.40
2023-03-22T02:18:42.102Z,8.30
2023-03-22T02:21:26.766Z,8.30
2023-03-22T02:24:18.393Z,8.30
2023-03-22T02:27:16.189Z,8.30
2023-03-22T02:29:55.913Z,8.30
2023-03-22T02:32:57.915Z,8.20
2023-03-22T02:35:48.837Z,8.20
2023-03-22T02:39:06.567Z,8.10
2023-03-22T02:41:41.709Z,8.10
2023-03-22T02:44:31.656Z,8.00
2023-03-22T02:47:04.461Z,8.00
2023-03-22T02:49:41.238Z,8.00
2023-03-22T02:52:07.765Z,8.00
2023-03-22T02:54:48.032Z,8.00
2023-03-22T02:57:30.664Z,8.00
2023-03-22T02:59:59.863Z,7.90
2023-03-22T03:02:28.021Z,7.90
2023-03-22T03:04:56.041Z,7.90
2023-03-22T03:07:27.141Z,8.00
2023-03-22T03:09:54.060Z,7.90
2023-03-22T03:12:24.897Z,7.80
2023-03-22T03:14:51.824Z,7.80
2023-03-22T03:17:55.195Z,7.80
2023-03-22T03:20:47.488Z,7.80
2023-03-22T03:23:24.385Z,7.70
2023-03-22T03:26:08.173Z,7.60
2023-03-22T03:28:52.252Z,7.50
2023-03-22T03:31:28.092Z,7.50
2023-03-22T03:34:00.596Z,7.40
2023-03-22T03:36:28.735Z,7.40
2023-03-22T03:38:57.032Z,7.40
2023-03-22T03:41:28.559Z,7.40
2023-03-22T03:43:58.118Z,7.40
2023-03-22T03:46:25.154Z,7.40
2023-03-22T03:48:54.878Z,7.40
2023-03-22T03:51:21.486Z,7.40
2023-03-22T03:53:48.185Z,7.40
2023-03-22T03:56:14.778Z,7.40
2023-03-22T03:58:41.458Z,7.50
2023-03-22T04:01:08.054Z,7.50
2023-03-22T04:03:34.681Z,7.40
2023-03-22T04:06:01.364Z,7.40
2023-03-22T04:08:28.075Z,7.40
2023-03-22T04:10:54.679Z,7.40
2023-03-22T04:13:21.754Z,7.30
2023-03-22T04:15:53.632Z,7.20
2023-03-22T04:18:21.222Z,7.20
2023-03-22T04:20:49.386Z,7.20
2023-03-22T04:23:16.462Z,7.20
2023-03-22T04:25:43.560Z,7.10
2023-03-22T04:28:10.193Z,7.10
2023-03-22T04:30:36.846Z,7.00
2023-03-22T04:33:07.010Z,7.00
2023-03-22T04:35:34.968Z,6.90
2023-03-22T04:38:01.822Z,6.90
2023-03-22T04:40:31.629Z,6.90
2023-03-22T04:42:58.864Z,6.80
2023-03-22T04:45:29.084Z,6.80
2023-03-22T04:47:56.158Z,6.90
2023-03-22T04:50:23.007Z,6.90
2023-03-22T04:52:50.388Z,6.90
2023-03-22T04:55:17.150Z,6.80
2023-03-22T04:57:43.968Z,6.80
2023-03-22T05:00:11.233Z,6.80
2023-03-22T05:02:41.446Z,6.80
2023-03-22T05:05:08.444Z,6.70
2023-03-22T05:07:35.217Z,6.70
2023-03-22T05:10:01.893Z,6.80
2023-03-22T05:12:28.494Z,6.80
2023-03-22T05:14:55.289Z,6.70
2023-03-22T05:17:22.210Z,6.70
2023-03-22T05:19:48.910Z,6.60
2023-03-22T05:22:15.550Z,6.60
2023-03-22T05:24:42.461Z,6.60
2023-03-22T05:27:10.824Z,6.60
2023-03-22T05:29:37.501Z,6.50
2023-03-22T05:32:04.506Z,6.60
2023-03-22T05:34:35.979Z,6.50
2023-03-22T05:37:03.547Z,6.60
2023-03-22T05:39:30.217Z,6.60
2023-03-22T05:41:56.852Z,6.60
2023-03-22T05:44:23.509Z,6.70
2023-03-22T05:46:50.124Z,6.70
2023-03-22T05:49:16.808Z,6.60
2023-03-22T05:51:43.552Z,6.60
2023-03-22T05:54:10.354Z,6.60
2023-03-22T05:56:37.041Z,6.50
2023-03-22T05:59:04.762Z,6.50
2023-03-22T06:01:33.576Z,6.50
2023-03-22T06:04:00.459Z,6.60
2023-03-22T06:06:28.075Z,6.60
2023-03-22T06:09:01.667Z,6.50
2023-03-22T06:11:35.417Z,6.50
2023-03-22T06:14:02.050Z,6.50
2023-03-22T06:16:28.758Z,6.50
2023-03-22T06:18:55.388Z,6.50
2023-03-22T06:21:22.209Z,6.50
2023-03-22T06:23:48.824Z,6.60
2023-03-22T06:26:15.633Z,6.60
2023-03-22T06:28:42.342Z,6.60
2023-03-22T06:31:09.728Z,6.70
2023-03-22T06:33:36.959Z,6.70
2023-03-22T06:36:04.237Z,6.80
2023-03-22T06:38:30.913Z,6.80
2023-03-22T06:40:57.596Z,6.90
2023-03-22T06:43:24.256Z,6.90
2023-03-22T06:45:50.954Z,7.00
2023-03-22T06:48:17.736Z,7.00
2023-03-22T06:50:45.584Z,7.00
2023-03-22T06:53:12.540Z,7.00
2023-03-22T06:55:45.034Z,7.00
2023-03-22T06:58:11.838Z,7.20
2023-03-22T07:00:39.470Z,7.20
2023-03-22T07:03:06.237Z,7.20
2023-03-22T07:05:33.293Z,7.30
2023-03-22T07:07:59.905Z,7.40
2023-03-22T07:10:26.521Z,7.40
2023-03-22T07:12:53.118Z,7.50
2023-03-22T07:15:24.200Z,7.50
2023-03-22T07:17:51.868Z,7.60
2023-03-22T07:20:19.774Z,7.70
2023-03-22T07:22:46.500Z,7.80
2023-03-22T07:25:13.115Z,7.80
2023-03-22T07:27:39.708Z,7.90
2023-03-22T07:30:09.332Z,8.00
2023-03-22T07:32:36.430Z,8.10
2023-03-22T07:35:03.179Z,8.20
2023-03-22T07:37:29.786Z,8.30
2023-03-22T07:39:56.419Z,8.30
2023-03-22T07:42:23.017Z,8.40
2023-03-22T07:44:49.833Z,8.50
2023-03-22T07:47:20.302Z,8.60
2023-03-22T07:49:51.849Z,8.70
2023-03-22T07:52:19.038Z,8.70
2023-03-22T07:54:46.033Z,8.90
2023-03-22T07:57:12.668Z,8.90
2023-03-22T07:59:40.165Z,9.00
2023-03-22T08:02:07.001Z,9.10
2023-03-22T08:04:34.261Z,9.20
2023-03-22T08:07:00.855Z,9.30
2023-03-22T08:09:27.504Z,9.30
2023-03-22T08:11:54.428Z,9.40
2023-03-22T08:14:27.436Z,9.50
2023-03-22T08:17:02.245Z,9.50
2023-03-22T08:19:29.166Z,9.60
2023-03-22T08:21:55.805Z,9.70
2023-03-22T08:24:22.442Z,9.80
2023-03-22T08:26:52.904Z,9.80
2023-03-22T08:29:23.459Z,9.80
2023-03-22T08:31:51.222Z,9.80
2023-03-22T08:34:17.943Z,9.90
2023-03-22T08:36:44.606Z,10.00
2023-03-22T08:39:11.225Z,10.00
2023-03-22T08:41:38.968Z,10.10
2023-03-22T08:44:05.786Z,10.20
2023-03-22T08:46:32.613Z,10.20
2023-03-22T08:49:03.900Z,10.30
2023-03-22T08:51:31.473Z,10.40
2023-03-22T08:54:00.117Z,10.50
2023-03-22T08:56:27.282Z,10.50
2023-03-22T08:58:53.918Z,10.60
2023-03-22T09:01:21.316Z,10.60
2023-03-22T09:03:48.170Z,10.70
2023-03-22T09:06:15.074Z,10.80
2023-03-22T09:08:42.034Z,10.90
2023-03-22T09:11:09.619Z,11.00
2023-03-22T09:13:36.331Z,11.10
2023-03-22T09:16:04.158Z,11.20
2023-03-22T09:18:33.831Z,11.20
2023-03-22T09:21:00.504Z,11.30
2023-03-22T09:23:27.154Z,11.40
2023-03-22T09:25:54.707Z,11.50
2023-03-22T09:28:21.760Z,11.60
2023-03-22T09:30:49.566Z,11.60
2023-03-22T09:33:16.207Z,11.70
2023-03-22T09:35:43.805Z,11.80
2023-03-22T09:38:12.113Z,11.90
2023-03-22T09:40:50.431Z,12.00
2023-03-22T09:43:19.429Z,12.10
2023-03-22T09:45:51.653Z,12.20
2023-03-22T09:48:21.766Z,12.30
2023-03-22T09:50:51.790Z,12.30
2023-03-22T09:53:19.788Z,12.40
2023-03-22T09:55:54.967Z,12.40
2023-03-22T09:58:38.119Z,12.40
2023-03-22T10:01:26.563Z,12.50
2023-03-22T10:04:06.099Z,12.60
2023-03-22T10:06:33.030Z,12.60
2023-03-22T10:09:08.610Z,12.70
2023-03-22T10:11:45.925Z,12.70
2023-03-22T10:14:35.140Z,12.80
2023-03-22T10:17:08.548Z,12.90
2023-03-22T10:19:52.174Z,12.90
2023-03-22T10:22:25.100Z,12.90
2023-03-22T10:24:53.576Z,13.00
2023-03-22T10:27:23.332Z,13.10
2023-03-22T10:29:59.684Z,13.10
2023-03-22T10:32:57.480Z,13.20
2023-03-22T10:35:25.588Z,13.30
2023-03-22T10:37:54.605Z,13.40
2023-03-22T10:40:27.170Z,13.40
2023-03-22T10:42:59.414Z,13.50
2023-03-22T10:45:27.182Z,13.50
2023-03-22T10:48:02.757Z,13.60
2023-03-22T10:50:36.849Z,13.60
2023-03-22T10:53:08.058Z,13.70
2023-03-22T10:55:41.635Z,13.70
2023-03-22T10:58:29.565Z,13.70
2023-03-22T11:01:11.517Z,13.80
2023-03-22T11:03:49.615Z,13.90
2023-03-22T11:06:20.867Z,13.90
2023-03-22T11:08:53.300Z,14.00
2023-03-22T11:11:37.894Z,14.00
2023-03-22T11:14:07.197Z,14.20
2023-03-22T11:16:58.024Z,14.20
2023-03-22T11:19:33.462Z,14.30
2023-03-22T11:22:02.317Z,14.40
2023-03-22T11:24:32.363Z,14.40
2023-03-22T11:27:19.707Z,14.50
2023-03-22T11:29:49.520Z,14.50
2023-03-22T11:32:31.008Z,14.60
2023-03-22T11:35:16.187Z,14.70
2023-03-22T11:37:44.547Z,14.80
2023-03-22T11:40:23.625Z,14.80
2023-03-22T11:42:56.907Z,14.80
2023-03-22T11:45:32.824Z,14.90
2023-03-22T11:48:07.018Z,15.00
2023-03-22T11:50:37.806Z,15.10
2023-03-22T11:53:08.900Z,15.10
2023-03-22T11:55:36.456Z,15.20
2023-03-22T11:58:05.081Z,15.30
2023-03-22T12:00:37.572Z,15.30
2023-03-22T12:03:17.754Z,15.40
2023-03-22T12:05:48.889Z,15.40
2023-03-22T12:08:49.462Z,15.50
2023-03-22T12:11:25.828Z,15.50
2023-03-22T12:14:00.668Z,15.60
2023-03-22T12:16:32.847Z,15.60
2023-03-22T12:19:14.663Z,15.60
2023-03-22T12:21:41.702Z,15.70
2023-03-22T12:24:32.471Z,15.70
2023-03-22T12:27:04.748Z,15.70
2023-03-22T12:29:32.315Z,15.80
2023-03-22T12:32:08.398Z,15.80
2023-03-22T12:34:50.906Z,15.80
2023-03-22T12:37:24.161Z,15.90
2023-03-22T12:40:08.844Z,15.90
2023-03-22T12:42:51.553Z,16.00
2023-03-22T12:45:26.070Z,16.10
2023-03-22T12:48:00.368Z,16.10
2023-03-22T12:50:52.167Z,16.20
2023-03-22T12:53:21.096Z,16.20
2023-03-22T12:55:49.071Z,16.20
2023-03-22T12:58:21.980Z,16.30
2023-03-22T13:01:12.149Z,16.30
2023-03-22T13:03:48.036Z,16.30
2023-03-22T13:06:47.703Z,16.40
2023-03-22T13:09:37.117Z,16.40
2023-03-22T13:12:18.649Z,16.50
2023-03-22T13:15:28.514Z,16.50
2023-03-22T13:17:59.498Z,16.50
2023-03-22T13:20:28.075Z,16.50
2023-03-22T13:22:54.671Z,16.60
2023-03-22T13:25:38.972Z,16.60
2023-03-22T13:28:26.233Z,16.70
2023-03-22T13:30:58.777Z,16.70
2023-03-22T13:33:37.063Z,16.80
2023-03-22T13:36:20.902Z,16.80
2023-03-22T13:39:08.106Z,16.80
2023-03-22T13:41:36.014Z,16.90
2023-03-22T13:44:20.540Z,16.90
2023-03-22T13:46:51.669Z,16.90
2023-03-22T13:49:26.353Z,17.00
2023-03-22T13:51:54.442Z,17.00
2023-03-22T13:54:26.090Z,17.10
2023-03-22T13:57:01.272Z,17.10
2023-03-22T13:59:27.969Z,17.10
2023-03-22T14:02:18.559Z,17.20
2023-03-22T14:05:08.998Z,17.20
2023-03-22T14:07:44.126Z,17.20
2023-03-22T14:10:41.683Z,17.30
2023-03-22T14:13:17.676Z,17.30
2023-03-22T14:15:51.764Z,17.30
2023-03-22T14:18:26.993Z,17.30
2023-03-22T14:21:00.372Z,17.40
